Kezdőlap
METAR-TAF:

METAR-TAF

Repülőterek :

Flying Cloud Airport

Minneapolis-Eden Prairie, Minnesota, Amerikai Egyesült Államok

földrajzi szélesség: 44-49-56N, földrajzi hosszúság: 093-28-13W, magasság: 287 m

Jelenlegi meteorológiai megfigyelések

A jelentés 40 perccel ezelõtt készült, 01:53 UTC
Dél-délnyugati szél 15 kt széllökések: 23 kt
Hőmérséklet -4°C
Páratartalom 68%
Légköri nyomás 1011 hPa
Látótávolság: 16.1 km
Kevés felhő 12000 lábon

METAR: KFCM 270153Z 20015G23KT 10SM FEW120 M04/M09 A2984 RMK AO2 PK WND 22028/0141 SLP126 T10441089

Idő: 20:33 (02:33 UTC)


TAF: hiányzik

Meteorológiai megfigyelések és előrejelzések több, mint 4000 repülőtéren (METAR és TAF jelentéseket).

A térképen piros és sárga pontok jelzik az elérhető meteorológiai állomásokat.

Mozgassa az egeret a pont fölött, hogy megjelenjen az állomás neve.

Azután kattintson az időjárási megfigyelések és előrejelzések megtekintéséhez.

A térkép megváltoztatása: kattintson a fekete keresztel jelölt zöld gombra ráközelítéshez, a vonallal jelölt zöld gombra távolításhoz, vagy a zöld nyilakra a szomszédos térképek eléréséhez.


METAR-TAF: